sensor_id;sensor_type;location;lat;lon;timestamp;P1;durP1;ratioP1;P2;durP2;ratioP2
61477;SDS011;47345;52.334;10.392;2023-07-13T00:00:46;4.00;;;2.10;;
61477;SDS011;47345;52.334;10.392;2023-07-13T00:03:18;2.50;;;2.20;;
61477;SDS011;47345;52.334;10.392;2023-07-13T00:05:58;5.20;;;2.20;;
61477;SDS011;47345;52.334;10.392;2023-07-13T00:08:31;6.30;;;2.30;;
61477;SDS011;47345;52.334;10.392;2023-07-13T00:11:02;3.90;;;2.20;;
61477;SDS011;47345;52.334;10.392;2023-07-13T00:13:34;4.30;;;2.40;;
61477;SDS011;47345;52.334;10.392;2023-07-13T00:16:07;3.80;;;2.20;;
61477;SDS011;47345;52.334;10.392;2023-07-13T00:18:40;2.80;;;2.40;;
61477;SDS011;47345;52.334;10.392;2023-07-13T00:21:11;3.50;;;2.30;;
61477;SDS011;47345;52.334;10.392;2023-07-13T00:23:42;3.60;;;2.40;;
61477;SDS011;47345;52.334;10.392;2023-07-13T00:26:13;2.40;;;2.20;;
61477;SDS011;47345;52.334;10.392;2023-07-13T00:28:45;5.20;;;2.70;;
61477;SDS011;47345;52.334;10.392;2023-07-13T00:31:16;2.60;;;2.00;;
61477;SDS011;47345;52.334;10.392;2023-07-13T00:33:47;4.40;;;2.30;;
61477;SDS011;47345;52.334;10.392;2023-07-13T00:36:19;3.60;;;2.50;;
61477;SDS011;47345;52.334;10.392;2023-07-13T00:38:50;3.70;;;2.50;;
61477;SDS011;47345;52.334;10.392;2023-07-13T00:41:22;4.50;;;2.30;;
61477;SDS011;47345;52.334;10.392;2023-07-13T00:43:52;3.70;;;2.20;;
61477;SDS011;47345;52.334;10.392;2023-07-13T00:46:25;4.80;;;2.40;;
61477;SDS011;47345;52.334;10.392;2023-07-13T00:48:59;3.50;;;2.30;;
61477;SDS011;47345;52.334;10.392;2023-07-13T00:51:34;3.40;;;2.30;;
61477;SDS011;47345;52.334;10.392;2023-07-13T00:54:11;6.70;;;2.40;;
61477;SDS011;47345;52.334;10.392;2023-07-13T00:56:44;4.20;;;2.30;;
61477;SDS011;47345;52.334;10.392;2023-07-13T00:59:17;6.00;;;3.00;;
61477;SDS011;47345;52.334;10.392;2023-07-13T01:01:50;4.10;;;2.40;;
61477;SDS011;47345;52.334;10.392;2023-07-13T01:04:23;3.00;;;2.50;;
61477;SDS011;47345;52.334;10.392;2023-07-13T01:06:54;4.70;;;2.30;;
61477;SDS011;47345;52.334;10.392;2023-07-13T01:09:27;2.90;;;2.30;;
61477;SDS011;47345;52.334;10.392;2023-07-13T01:11:58;3.40;;;2.40;;
61477;SDS011;47345;52.334;10.392;2023-07-13T01:14:29;4.30;;;2.50;;
61477;SDS011;47345;52.334;10.392;2023-07-13T01:17:00;2.40;;;2.20;;
61477;SDS011;47345;52.334;10.392;2023-07-13T01:19:33;4.10;;;2.50;;
61477;SDS011;47345;52.334;10.392;2023-07-13T01:22:07;5.90;;;2.60;;
61477;SDS011;47345;52.334;10.392;2023-07-13T01:24:40;3.60;;;2.20;;
61477;SDS011;47345;52.334;10.392;2023-07-13T01:27:13;6.60;;;2.60;;
61477;SDS011;47345;52.334;10.392;2023-07-13T01:29:45;4.80;;;2.30;;
61477;SDS011;47345;52.334;10.392;2023-07-13T01:32:16;4.00;;;2.10;;
61477;SDS011;47345;52.334;10.392;2023-07-13T01:34:52;5.70;;;2.30;;
61477;SDS011;47345;52.334;10.392;2023-07-13T01:37:24;5.50;;;2.40;;
61477;SDS011;47345;52.334;10.392;2023-07-13T01:40:00;4.10;;;2.40;;
61477;SDS011;47345;52.334;10.392;2023-07-13T01:42:32;4.30;;;2.60;;
61477;SDS011;47345;52.334;10.392;2023-07-13T01:45:03;4.90;;;2.40;;
61477;SDS011;47345;52.334;10.392;2023-07-13T01:47:35;4.80;;;2.40;;
61477;SDS011;47345;52.334;10.392;2023-07-13T01:50:07;4.10;;;2.40;;
61477;SDS011;47345;52.334;10.392;2023-07-13T01:52:38;3.20;;;2.40;;
61477;SDS011;47345;52.334;10.392;2023-07-13T01:55:09;3.50;;;2.10;;
61477;SDS011;47345;52.334;10.392;2023-07-13T01:57:41;4.60;;;2.50;;
61477;SDS011;47345;52.334;10.392;2023-07-13T02:00:13;4.80;;;2.80;;
61477;SDS011;47345;52.334;10.392;2023-07-13T02:02:45;3.50;;;2.70;;
61477;SDS011;47345;52.334;10.392;2023-07-13T02:05:16;3.60;;;2.50;;
61477;SDS011;47345;52.334;10.392;2023-07-13T02:07:48;4.40;;;2.60;;
61477;SDS011;47345;52.334;10.392;2023-07-13T02:10:19;4.40;;;2.50;;
61477;SDS011;47345;52.334;10.392;2023-07-13T02:12:50;4.80;;;2.70;;
61477;SDS011;47345;52.334;10.392;2023-07-13T02:15:20;3.30;;;2.40;;
61477;SDS011;47345;52.334;10.392;2023-07-13T02:17:52;3.60;;;2.40;;
61477;SDS011;47345;52.334;10.392;2023-07-13T02:20:23;3.90;;;2.50;;
61477;SDS011;47345;52.334;10.392;2023-07-13T02:22:55;3.70;;;2.60;;
61477;SDS011;47345;52.334;10.392;2023-07-13T02:25:26;4.50;;;2.80;;
61477;SDS011;47345;52.334;10.392;2023-07-13T02:27:56;5.50;;;2.80;;
61477;SDS011;47345;52.334;10.392;2023-07-13T02:30:27;4.20;;;2.60;;
61477;SDS011;47345;52.334;10.392;2023-07-13T02:32:58;4.90;;;2.80;;
61477;SDS011;47345;52.334;10.392;2023-07-13T02:35:29;6.50;;;2.90;;
61477;SDS011;47345;52.334;10.392;2023-07-13T02:37:59;6.30;;;2.70;;
61477;SDS011;47345;52.334;10.392;2023-07-13T02:40:30;8.60;;;3.00;;
61477;SDS011;47345;52.334;10.392;2023-07-13T02:43:03;4.90;;;2.70;;
61477;SDS011;47345;52.334;10.392;2023-07-13T02:45:34;3.70;;;2.80;;
61477;SDS011;47345;52.334;10.392;2023-07-13T02:48:05;5.90;;;3.00;;
61477;SDS011;47345;52.334;10.392;2023-07-13T02:50:35;6.90;;;2.70;;
61477;SDS011;47345;52.334;10.392;2023-07-13T02:53:06;5.40;;;2.90;;
61477;SDS011;47345;52.334;10.392;2023-07-13T02:55:37;4.40;;;2.70;;
61477;SDS011;47345;52.334;10.392;2023-07-13T02:58:08;5.50;;;2.70;;
61477;SDS011;47345;52.334;10.392;2023-07-13T03:00:40;6.90;;;2.80;;
61477;SDS011;47345;52.334;10.392;2023-07-13T03:03:11;4.00;;;2.80;;
61477;SDS011;47345;52.334;10.392;2023-07-13T03:05:42;4.10;;;2.80;;
61477;SDS011;47345;52.334;10.392;2023-07-13T03:08:18;3.90;;;3.00;;
61477;SDS011;47345;52.334;10.392;2023-07-13T03:10:49;3.90;;;2.60;;
61477;SDS011;47345;52.334;10.392;2023-07-13T03:13:29;4.50;;;2.70;;
61477;SDS011;47345;52.334;10.392;2023-07-13T03:16:00;4.20;;;2.80;;
61477;SDS011;47345;52.334;10.392;2023-07-13T03:18:31;7.30;;;3.00;;
61477;SDS011;47345;52.334;10.392;2023-07-13T03:21:03;5.40;;;2.90;;
61477;SDS011;47345;52.334;10.392;2023-07-13T03:23:34;6.30;;;3.20;;
61477;SDS011;47345;52.334;10.392;2023-07-13T03:26:05;3.70;;;2.90;;
61477;SDS011;47345;52.334;10.392;2023-07-13T03:28:38;3.00;;;2.40;;
61477;SDS011;47345;52.334;10.392;2023-07-13T03:31:10;3.20;;;2.60;;
61477;SDS011;47345;52.334;10.392;2023-07-13T03:33:44;4.20;;;2.90;;
61477;SDS011;47345;52.334;10.392;2023-07-13T03:36:17;6.30;;;3.00;;
61477;SDS011;47345;52.334;10.392;2023-07-13T03:38:49;3.60;;;2.80;;
61477;SDS011;47345;52.334;10.392;2023-07-13T03:41:22;8.00;;;2.90;;
61477;SDS011;47345;52.334;10.392;2023-07-13T03:43:54;4.50;;;2.60;;
61477;SDS011;47345;52.334;10.392;2023-07-13T03:46:24;4.10;;;2.70;;
61477;SDS011;47345;52.334;10.392;2023-07-13T03:48:56;4.70;;;2.30;;
61477;SDS011;47345;52.334;10.392;2023-07-13T03:51:26;5.70;;;2.50;;
61477;SDS011;47345;52.334;10.392;2023-07-13T03:53:58;8.20;;;2.90;;
61477;SDS011;47345;52.334;10.392;2023-07-13T03:56:30;5.40;;;2.80;;
61477;SDS011;47345;52.334;10.392;2023-07-13T03:59:01;5.70;;;2.80;;
61477;SDS011;47345;52.334;10.392;2023-07-13T04:01:32;4.40;;;2.70;;
61477;SDS011;47345;52.334;10.392;2023-07-13T04:04:03;4.10;;;2.40;;
61477;SDS011;47345;52.334;10.392;2023-07-13T04:06:34;7.60;;;2.60;;
61477;SDS011;47345;52.334;10.392;2023-07-13T04:09:06;5.80;;;2.50;;
61477;SDS011;47345;52.334;10.392;2023-07-13T04:11:37;10.60;;;2.70;;
61477;SDS011;47345;52.334;10.392;2023-07-13T04:14:08;7.70;;;2.70;;
61477;SDS011;47345;52.334;10.392;2023-07-13T04:16:39;3.90;;;2.30;;
61477;SDS011;47345;52.334;10.392;2023-07-13T04:19:10;4.20;;;2.40;;
61477;SDS011;47345;52.334;10.392;2023-07-13T04:21:41;5.90;;;2.30;;
61477;SDS011;47345;52.334;10.392;2023-07-13T04:24:13;3.40;;;2.70;;
61477;SDS011;47345;52.334;10.392;2023-07-13T04:26:44;5.50;;;2.10;;
61477;SDS011;47345;52.334;10.392;2023-07-13T04:29:15;2.50;;;2.00;;
61477;SDS011;47345;52.334;10.392;2023-07-13T04:31:46;5.10;;;2.40;;
61477;SDS011;47345;52.334;10.392;2023-07-13T04:34:17;4.70;;;2.30;;
61477;SDS011;47345;52.334;10.392;2023-07-13T04:36:48;5.40;;;2.60;;
61477;SDS011;47345;52.334;10.392;2023-07-13T04:39:20;5.30;;;2.70;;
61477;SDS011;47345;52.334;10.392;2023-07-13T04:41:51;4.00;;;2.60;;
61477;SDS011;47345;52.334;10.392;2023-07-13T04:44:23;5.00;;;2.40;;
61477;SDS011;47345;52.334;10.392;2023-07-13T04:46:54;3.00;;;2.20;;
61477;SDS011;47345;52.334;10.392;2023-07-13T04:49:25;9.80;;;2.30;;
61477;SDS011;47345;52.334;10.392;2023-07-13T04:51:56;3.40;;;2.10;;
61477;SDS011;47345;52.334;10.392;2023-07-13T04:54:27;3.30;;;2.40;;
61477;SDS011;47345;52.334;10.392;2023-07-13T04:56:58;6.60;;;2.00;;
61477;SDS011;47345;52.334;10.392;2023-07-13T04:59:29;3.80;;;2.00;;
61477;SDS011;47345;52.334;10.392;2023-07-13T05:02:00;5.50;;;2.10;;
61477;SDS011;47345;52.334;10.392;2023-07-13T05:04:31;5.60;;;2.30;;
61477;SDS011;47345;52.334;10.392;2023-07-13T05:07:02;4.60;;;2.00;;
61477;SDS011;47345;52.334;10.392;2023-07-13T05:09:34;6.10;;;2.10;;
61477;SDS011;47345;52.334;10.392;2023-07-13T05:12:06;5.00;;;1.90;;
61477;SDS011;47345;52.334;10.392;2023-07-13T05:14:38;9.40;;;2.00;;
61477;SDS011;47345;52.334;10.392;2023-07-13T05:17:09;3.20;;;1.90;;
61477;SDS011;47345;52.334;10.392;2023-07-13T05:19:39;7.10;;;2.10;;
61477;SDS011;47345;52.334;10.392;2023-07-13T05:22:10;6.70;;;2.40;;
61477;SDS011;47345;52.334;10.392;2023-07-13T05:24:42;6.00;;;2.30;;
61477;SDS011;47345;52.334;10.392;2023-07-13T05:27:12;4.80;;;2.10;;
61477;SDS011;47345;52.334;10.392;2023-07-13T05:29:43;5.80;;;2.10;;
61477;SDS011;47345;52.334;10.392;2023-07-13T05:32:14;6.40;;;2.10;;
61477;SDS011;47345;52.334;10.392;2023-07-13T05:34:45;2.90;;;1.80;;
61477;SDS011;47345;52.334;10.392;2023-07-13T05:37:16;4.30;;;2.00;;
61477;SDS011;47345;52.334;10.392;2023-07-13T05:39:46;4.90;;;2.00;;
61477;SDS011;47345;52.334;10.392;2023-07-13T05:42:17;5.10;;;2.10;;
61477;SDS011;47345;52.334;10.392;2023-07-13T05:44:48;3.40;;;2.00;;
61477;SDS011;47345;52.334;10.392;2023-07-13T05:47:19;3.50;;;2.00;;
61477;SDS011;47345;52.334;10.392;2023-07-13T05:49:50;3.70;;;2.20;;
61477;SDS011;47345;52.334;10.392;2023-07-13T05:52:21;3.30;;;2.20;;
61477;SDS011;47345;52.334;10.392;2023-07-13T05:54:52;4.60;;;2.20;;
61477;SDS011;47345;52.334;10.392;2023-07-13T05:57:23;5.50;;;1.90;;
61477;SDS011;47345;52.334;10.392;2023-07-13T05:59:54;4.60;;;2.00;;
61477;SDS011;47345;52.334;10.392;2023-07-13T06:02:25;7.90;;;2.10;;
61477;SDS011;47345;52.334;10.392;2023-07-13T06:04:57;3.10;;;2.00;;
61477;SDS011;47345;52.334;10.392;2023-07-13T06:07:28;7.60;;;2.20;;
61477;SDS011;47345;52.334;10.392;2023-07-13T06:09:58;3.70;;;2.20;;
61477;SDS011;47345;52.334;10.392;2023-07-13T06:12:29;5.60;;;2.30;;
61477;SDS011;47345;52.334;10.392;2023-07-13T06:15:00;7.10;;;2.30;;
61477;SDS011;47345;52.334;10.392;2023-07-13T06:17:32;3.80;;;2.00;;
61477;SDS011;47345;52.334;10.392;2023-07-13T06:20:03;5.40;;;2.20;;
61477;SDS011;47345;52.334;10.392;2023-07-13T06:22:35;3.80;;;2.00;;
61477;SDS011;47345;52.334;10.392;2023-07-13T06:25:08;8.90;;;2.10;;
61477;SDS011;47345;52.334;10.392;2023-07-13T06:27:39;6.10;;;2.40;;
61477;SDS011;47345;52.334;10.392;2023-07-13T06:30:11;9.20;;;2.20;;
61477;SDS011;47345;52.334;10.392;2023-07-13T06:32:42;4.90;;;2.20;;
61477;SDS011;47345;52.334;10.392;2023-07-13T06:35:13;5.60;;;2.00;;
61477;SDS011;47345;52.334;10.392;2023-07-13T06:37:44;7.50;;;2.10;;
61477;SDS011;47345;52.334;10.392;2023-07-13T06:40:15;6.00;;;2.20;;
61477;SDS011;47345;52.334;10.392;2023-07-13T06:42:46;6.60;;;2.40;;
61477;SDS011;47345;52.334;10.392;2023-07-13T06:45:17;4.90;;;2.20;;
61477;SDS011;47345;52.334;10.392;2023-07-13T06:47:48;11.40;;;2.10;;
61477;SDS011;47345;52.334;10.392;2023-07-13T06:50:19;9.40;;;1.90;;
61477;SDS011;47345;52.334;10.392;2023-07-13T06:52:50;7.10;;;2.00;;
61477;SDS011;47345;52.334;10.392;2023-07-13T06:55:20;7.30;;;2.30;;
61477;SDS011;47345;52.334;10.392;2023-07-13T06:57:51;4.00;;;1.70;;
61477;SDS011;47345;52.334;10.392;2023-07-13T07:00:23;5.90;;;2.00;;
61477;SDS011;47345;52.334;10.392;2023-07-13T07:02:53;9.00;;;2.70;;
61477;SDS011;47345;52.334;10.392;2023-07-13T07:05:24;6.60;;;2.40;;
61477;SDS011;47345;52.334;10.392;2023-07-13T07:07:55;9.40;;;2.60;;
61477;SDS011;47345;52.334;10.392;2023-07-13T07:10:26;7.30;;;2.00;;
61477;SDS011;47345;52.334;10.392;2023-07-13T07:12:58;5.50;;;2.30;;
61477;SDS011;47345;52.334;10.392;2023-07-13T07:15:29;7.70;;;2.40;;
61477;SDS011;47345;52.334;10.392;2023-07-13T07:18:00;7.10;;;2.40;;
61477;SDS011;47345;52.334;10.392;2023-07-13T07:20:31;7.80;;;2.30;;
61477;SDS011;47345;52.334;10.392;2023-07-13T07:23:02;7.90;;;2.60;;
61477;SDS011;47345;52.334;10.392;2023-07-13T07:25:33;5.60;;;2.20;;
61477;SDS011;47345;52.334;10.392;2023-07-13T07:28:09;7.40;;;2.30;;
61477;SDS011;47345;52.334;10.392;2023-07-13T07:31:01;4.60;;;2.20;;
61477;SDS011;47345;52.334;10.392;2023-07-13T07:33:35;8.90;;;2.00;;
61477;SDS011;47345;52.334;10.392;2023-07-13T07:36:06;5.80;;;2.30;;
61477;SDS011;47345;52.334;10.392;2023-07-13T07:38:40;3.20;;;1.80;;
61477;SDS011;47345;52.334;10.392;2023-07-13T07:41:11;5.30;;;2.20;;
61477;SDS011;47345;52.334;10.392;2023-07-13T07:43:45;6.70;;;2.10;;
61477;SDS011;47345;52.334;10.392;2023-07-13T07:46:15;6.90;;;2.30;;
61477;SDS011;47345;52.334;10.392;2023-07-13T07:48:46;7.00;;;2.20;;
61477;SDS011;47345;52.334;10.392;2023-07-13T07:51:17;3.50;;;2.10;;
61477;SDS011;47345;52.334;10.392;2023-07-13T07:53:47;3.20;;;2.10;;
61477;SDS011;47345;52.334;10.392;2023-07-13T07:56:18;8.50;;;2.50;;
61477;SDS011;47345;52.334;10.392;2023-07-13T07:58:52;4.60;;;2.30;;
61477;SDS011;47345;52.334;10.392;2023-07-13T08:01:26;9.60;;;3.80;;
61477;SDS011;47345;52.334;10.392;2023-07-13T08:04:00;5.00;;;2.10;;
61477;SDS011;47345;52.334;10.392;2023-07-13T08:06:33;5.30;;;2.40;;
61477;SDS011;47345;52.334;10.392;2023-07-13T08:09:07;5.10;;;2.10;;
61477;SDS011;47345;52.334;10.392;2023-07-13T08:11:38;3.70;;;1.80;;
61477;SDS011;47345;52.334;10.392;2023-07-13T08:14:11;6.00;;;2.40;;
61477;SDS011;47345;52.334;10.392;2023-07-13T08:16:42;3.40;;;1.80;;
61477;SDS011;47345;52.334;10.392;2023-07-13T08:19:13;6.50;;;2.00;;
61477;SDS011;47345;52.334;10.392;2023-07-13T08:21:44;6.10;;;2.10;;
61477;SDS011;47345;52.334;10.392;2023-07-13T08:24:16;7.40;;;2.30;;
61477;SDS011;47345;52.334;10.392;2023-07-13T08:26:47;7.50;;;2.10;;
61477;SDS011;47345;52.334;10.392;2023-07-13T08:29:20;5.90;;;2.10;;
61477;SDS011;47345;52.334;10.392;2023-07-13T08:31:51;4.20;;;1.80;;
61477;SDS011;47345;52.334;10.392;2023-07-13T08:34:22;5.70;;;1.90;;
61477;SDS011;47345;52.334;10.392;2023-07-13T08:36:53;3.70;;;2.00;;
61477;SDS011;47345;52.334;10.392;2023-07-13T08:39:24;4.30;;;2.00;;
61477;SDS011;47345;52.334;10.392;2023-07-13T08:41:57;4.40;;;1.90;;
61477;SDS011;47345;52.334;10.392;2023-07-13T08:44:40;3.50;;;1.90;;
61477;SDS011;47345;52.334;10.392;2023-07-13T08:47:20;8.90;;;2.00;;
61477;SDS011;47345;52.334;10.392;2023-07-13T08:49:53;3.90;;;1.70;;
61477;SDS011;47345;52.334;10.392;2023-07-13T08:52:28;3.40;;;1.90;;
61477;SDS011;47345;52.334;10.392;2023-07-13T08:55:09;7.30;;;2.10;;
61477;SDS011;47345;52.334;10.392;2023-07-13T08:57:44;3.60;;;1.90;;
61477;SDS011;47345;52.334;10.392;2023-07-13T09:00:17;4.00;;;2.00;;
61477;SDS011;47345;52.334;10.392;2023-07-13T09:02:49;7.80;;;1.90;;
61477;SDS011;47345;52.334;10.392;2023-07-13T09:05:28;7.20;;;1.90;;
61477;SDS011;47345;52.334;10.392;2023-07-13T09:08:08;4.20;;;1.90;;
61477;SDS011;47345;52.334;10.392;2023-07-13T09:10:51;9.00;;;2.20;;
61477;SDS011;47345;52.334;10.392;2023-07-13T09:13:29;5.60;;;2.10;;
61477;SDS011;47345;52.334;10.392;2023-07-13T09:16:09;4.90;;;1.70;;
61477;SDS011;47345;52.334;10.392;2023-07-13T09:18:42;6.60;;;1.70;;
61477;SDS011;47345;52.334;10.392;2023-07-13T09:21:18;5.90;;;1.80;;
61477;SDS011;47345;52.334;10.392;2023-07-13T09:23:54;5.30;;;2.00;;
61477;SDS011;47345;52.334;10.392;2023-07-13T09:26:29;3.00;;;1.70;;
61477;SDS011;47345;52.334;10.392;2023-07-13T09:29:09;6.40;;;1.90;;
61477;SDS011;47345;52.334;10.392;2023-07-13T09:31:44;6.00;;;2.00;;
61477;SDS011;47345;52.334;10.392;2023-07-13T09:34:21;4.80;;;1.50;;
61477;SDS011;47345;52.334;10.392;2023-07-13T09:36:52;9.60;;;1.90;;
61477;SDS011;47345;52.334;10.392;2023-07-13T09:39:24;5.90;;;2.10;;
61477;SDS011;47345;52.334;10.392;2023-07-13T09:41:57;3.10;;;1.50;;
61477;SDS011;47345;52.334;10.392;2023-07-13T09:44:36;5.60;;;1.90;;
61477;SDS011;47345;52.334;10.392;2023-07-13T09:47:15;4.00;;;1.80;;
61477;SDS011;47345;52.334;10.392;2023-07-13T09:49:47;5.10;;;1.90;;
61477;SDS011;47345;52.334;10.392;2023-07-13T09:52:22;4.80;;;1.80;;
61477;SDS011;47345;52.334;10.392;2023-07-13T09:54:55;3.60;;;1.80;;
61477;SDS011;47345;52.334;10.392;2023-07-13T09:57:27;4.10;;;1.70;;
61477;SDS011;47345;52.334;10.392;2023-07-13T10:00:21;4.80;;;1.80;;
61477;SDS011;47345;52.334;10.392;2023-07-13T10:03:04;6.00;;;1.80;;
61477;SDS011;47345;52.334;10.392;2023-07-13T10:05:49;7.20;;;2.10;;
61477;SDS011;47345;52.334;10.392;2023-07-13T10:08:25;5.30;;;1.80;;
61477;SDS011;47345;52.334;10.392;2023-07-13T10:10:59;4.20;;;1.70;;
61477;SDS011;47345;52.334;10.392;2023-07-13T10:13:40;3.60;;;1.80;;
61477;SDS011;47345;52.334;10.392;2023-07-13T10:16:13;4.20;;;1.90;;
61477;SDS011;47345;52.334;10.392;2023-07-13T10:18:46;5.30;;;1.90;;
61477;SDS011;47345;52.334;10.392;2023-07-13T10:21:21;10.20;;;2.10;;
61477;SDS011;47345;52.334;10.392;2023-07-13T10:24:05;8.00;;;2.50;;
61477;SDS011;47345;52.334;10.392;2023-07-13T10:26:47;5.90;;;2.60;;
61477;SDS011;47345;52.334;10.392;2023-07-13T10:29:23;4.80;;;1.90;;
61477;SDS011;47345;52.334;10.392;2023-07-13T10:31:55;4.00;;;1.90;;
61477;SDS011;47345;52.334;10.392;2023-07-13T10:34:27;5.50;;;1.90;;
61477;SDS011;47345;52.334;10.392;2023-07-13T10:36:59;4.20;;;2.00;;
61477;SDS011;47345;52.334;10.392;2023-07-13T10:39:30;5.50;;;2.00;;
61477;SDS011;47345;52.334;10.392;2023-07-13T10:42:05;5.90;;;2.00;;
61477;SDS011;47345;52.334;10.392;2023-07-13T10:44:42;6.30;;;1.90;;
61477;SDS011;47345;52.334;10.392;2023-07-13T10:47:14;5.90;;;1.90;;
61477;SDS011;47345;52.334;10.392;2023-07-13T10:49:46;5.20;;;2.00;;
61477;SDS011;47345;52.334;10.392;2023-07-13T10:52:42;2.40;;;1.60;;
61477;SDS011;47345;52.334;10.392;2023-07-13T10:55:32;2.60;;;1.70;;
61477;SDS011;47345;52.334;10.392;2023-07-13T10:58:18;3.40;;;1.80;;
61477;SDS011;47345;52.334;10.392;2023-07-13T11:00:53;2.50;;;1.60;;
61477;SDS011;47345;52.334;10.392;2023-07-13T11:03:28;2.00;;;1.70;;
61477;SDS011;47345;52.334;10.392;2023-07-13T11:06:09;3.80;;;1.80;;
61477;SDS011;47345;52.334;10.392;2023-07-13T11:08:52;5.30;;;1.90;;
61477;SDS011;47345;52.334;10.392;2023-07-13T11:11:34;4.40;;;1.90;;
61477;SDS011;47345;52.334;10.392;2023-07-13T11:14:25;3.20;;;2.00;;
61477;SDS011;47345;52.334;10.392;2023-07-13T11:16:59;5.80;;;2.00;;
61477;SDS011;47345;52.334;10.392;2023-07-13T11:20:18;4.60;;;1.70;;
61477;SDS011;47345;52.334;10.392;2023-07-13T11:22:52;3.60;;;2.00;;
61477;SDS011;47345;52.334;10.392;2023-07-13T11:25:37;6.50;;;2.00;;
61477;SDS011;47345;52.334;10.392;2023-07-13T11:28:14;4.70;;;2.00;;
61477;SDS011;47345;52.334;10.392;2023-07-13T11:30:59;6.70;;;2.20;;
61477;SDS011;47345;52.334;10.392;2023-07-13T11:33:48;2.80;;;1.70;;
61477;SDS011;47345;52.334;10.392;2023-07-13T11:36:23;3.20;;;1.90;;
61477;SDS011;47345;52.334;10.392;2023-07-13T11:39:01;5.00;;;1.70;;
61477;SDS011;47345;52.334;10.392;2023-07-13T11:41:35;6.50;;;2.20;;
61477;SDS011;47345;52.334;10.392;2023-07-13T11:44:12;3.90;;;1.80;;
61477;SDS011;47345;52.334;10.392;2023-07-13T11:46:46;3.20;;;1.80;;
61477;SDS011;47345;52.334;10.392;2023-07-13T11:49:22;3.70;;;1.70;;
61477;SDS011;47345;52.334;10.392;2023-07-13T11:51:55;6.20;;;1.90;;
61477;SDS011;47345;52.334;10.392;2023-07-13T11:54:27;5.00;;;1.70;;
61477;SDS011;47345;52.334;10.392;2023-07-13T11:57:03;3.00;;;1.70;;
61477;SDS011;47345;52.334;10.392;2023-07-13T11:59:42;2.80;;;1.50;;
61477;SDS011;47345;52.334;10.392;2023-07-13T12:02:15;2.10;;;1.60;;
61477;SDS011;47345;52.334;10.392;2023-07-13T12:04:55;3.10;;;2.00;;
61477;SDS011;47345;52.334;10.392;2023-07-13T12:07:28;3.40;;;1.80;;
61477;SDS011;47345;52.334;10.392;2023-07-13T12:10:01;4.50;;;1.60;;
61477;SDS011;47345;52.334;10.392;2023-07-13T12:12:40;3.00;;;1.70;;
61477;SDS011;47345;52.334;10.392;2023-07-13T12:15:19;2.40;;;1.40;;
61477;SDS011;47345;52.334;10.392;2023-07-13T12:17:51;4.40;;;1.80;;
61477;SDS011;47345;52.334;10.392;2023-07-13T12:20:24;7.10;;;1.80;;
61477;SDS011;47345;52.334;10.392;2023-07-13T12:22:58;5.00;;;1.70;;
61477;SDS011;47345;52.334;10.392;2023-07-13T12:25:33;3.90;;;1.70;;
61477;SDS011;47345;52.334;10.392;2023-07-13T12:30:51;3.10;;;1.70;;
61477;SDS011;47345;52.334;10.392;2023-07-13T12:33:29;3.50;;;1.80;;
61477;SDS011;47345;52.334;10.392;2023-07-13T12:36:02;2.00;;;1.40;;
61477;SDS011;47345;52.334;10.392;2023-07-13T12:38:35;1.90;;;1.50;;
61477;SDS011;47345;52.334;10.392;2023-07-13T12:41:07;2.20;;;1.50;;
61477;SDS011;47345;52.334;10.392;2023-07-13T12:43:39;6.60;;;1.70;;
61477;SDS011;47345;52.334;10.392;2023-07-13T12:46:16;4.40;;;1.80;;
61477;SDS011;47345;52.334;10.392;2023-07-13T12:48:50;2.20;;;1.70;;
61477;SDS011;47345;52.334;10.392;2023-07-13T12:51:42;3.10;;;1.80;;
61477;SDS011;47345;52.334;10.392;2023-07-13T12:54:15;4.10;;;1.80;;
61477;SDS011;47345;52.334;10.392;2023-07-13T12:56:49;4.60;;;1.80;;
61477;SDS011;47345;52.334;10.392;2023-07-13T12:59:24;3.70;;;1.60;;
61477;SDS011;47345;52.334;10.392;2023-07-13T13:04:30;4.90;;;1.60;;
61477;SDS011;47345;52.334;10.392;2023-07-13T13:07:02;5.60;;;1.70;;
61477;SDS011;47345;52.334;10.392;2023-07-13T13:09:37;2.00;;;1.80;;
61477;SDS011;47345;52.334;10.392;2023-07-13T13:12:08;1.80;;;1.70;;
61477;SDS011;47345;52.334;10.392;2023-07-13T13:14:42;3.20;;;2.00;;
61477;SDS011;47345;52.334;10.392;2023-07-13T13:17:17;3.60;;;1.80;;
61477;SDS011;47345;52.334;10.392;2023-07-13T13:19:51;3.50;;;1.80;;
61477;SDS011;47345;52.334;10.392;2023-07-13T13:22:23;2.70;;;1.60;;
61477;SDS011;47345;52.334;10.392;2023-07-13T13:24:53;3.30;;;1.70;;
61477;SDS011;47345;52.334;10.392;2023-07-13T13:27:24;3.00;;;1.60;;
61477;SDS011;47345;52.334;10.392;2023-07-13T13:29:55;2.30;;;1.60;;
61477;SDS011;47345;52.334;10.392;2023-07-13T13:32:26;2.70;;;1.70;;
61477;SDS011;47345;52.334;10.392;2023-07-13T13:34:57;3.80;;;2.70;;
61477;SDS011;47345;52.334;10.392;2023-07-13T13:37:29;7.30;;;2.00;;
61477;SDS011;47345;52.334;10.392;2023-07-13T13:40:00;3.50;;;1.80;;
61477;SDS011;47345;52.334;10.392;2023-07-13T13:42:36;4.40;;;1.70;;
61477;SDS011;47345;52.334;10.392;2023-07-13T13:45:08;3.50;;;1.70;;
61477;SDS011;47345;52.334;10.392;2023-07-13T13:47:40;4.80;;;1.70;;
61477;SDS011;47345;52.334;10.392;2023-07-13T13:50:13;2.60;;;1.90;;
61477;SDS011;47345;52.334;10.392;2023-07-13T13:52:48;5.50;;;1.80;;
61477;SDS011;47345;52.334;10.392;2023-07-13T13:55:19;2.10;;;1.80;;
61477;SDS011;47345;52.334;10.392;2023-07-13T13:57:52;4.50;;;1.70;;
61477;SDS011;47345;52.334;10.392;2023-07-13T14:00:22;2.70;;;2.00;;
61477;SDS011;47345;52.334;10.392;2023-07-13T14:02:53;2.70;;;1.80;;
61477;SDS011;47345;52.334;10.392;2023-07-13T14:05:25;3.20;;;1.90;;
61477;SDS011;47345;52.334;10.392;2023-07-13T14:07:57;5.60;;;1.80;;
61477;SDS011;47345;52.334;10.392;2023-07-13T14:10:28;12.70;;;2.00;;
61477;SDS011;47345;52.334;10.392;2023-07-13T14:12:59;9.70;;;2.30;;
61477;SDS011;47345;52.334;10.392;2023-07-13T14:15:29;7.80;;;2.10;;
61477;SDS011;47345;52.334;10.392;2023-07-13T14:18:00;6.90;;;2.50;;
61477;SDS011;47345;52.334;10.392;2023-07-13T14:20:31;15.40;;;3.00;;
61477;SDS011;47345;52.334;10.392;2023-07-13T14:23:02;8.00;;;2.80;;
61477;SDS011;47345;52.334;10.392;2023-07-13T14:25:33;6.90;;;2.40;;
61477;SDS011;47345;52.334;10.392;2023-07-13T14:28:21;4.00;;;2.20;;
61477;SDS011;47345;52.334;10.392;2023-07-13T14:30:54;3.30;;;2.10;;
61477;SDS011;47345;52.334;10.392;2023-07-13T14:33:28;3.00;;;2.10;;
61477;SDS011;47345;52.334;10.392;2023-07-13T14:35:59;3.60;;;1.90;;
61477;SDS011;47345;52.334;10.392;2023-07-13T14:38:30;2.60;;;1.90;;
61477;SDS011;47345;52.334;10.392;2023-07-13T14:41:01;2.10;;;1.70;;
61477;SDS011;47345;52.334;10.392;2023-07-13T14:43:32;6.20;;;3.40;;
61477;SDS011;47345;52.334;10.392;2023-07-13T14:46:03;5.80;;;2.20;;
61477;SDS011;47345;52.334;10.392;2023-07-13T14:48:38;3.20;;;2.00;;
61477;SDS011;47345;52.334;10.392;2023-07-13T14:51:08;1.70;;;1.60;;
61477;SDS011;47345;52.334;10.392;2023-07-13T14:53:39;2.20;;;2.00;;
61477;SDS011;47345;52.334;10.392;2023-07-13T14:56:11;2.70;;;1.90;;
61477;SDS011;47345;52.334;10.392;2023-07-13T14:58:45;2.90;;;1.80;;
61477;SDS011;47345;52.334;10.392;2023-07-13T15:01:16;2.10;;;1.90;;
61477;SDS011;47345;52.334;10.392;2023-07-13T15:03:48;3.20;;;2.10;;
61477;SDS011;47345;52.334;10.392;2023-07-13T15:06:21;2.70;;;1.80;;
61477;SDS011;47345;52.334;10.392;2023-07-13T15:08:52;1.60;;;1.50;;
61477;SDS011;47345;52.334;10.392;2023-07-13T15:11:23;3.30;;;1.90;;
61477;SDS011;47345;52.334;10.392;2023-07-13T15:13:54;3.40;;;2.00;;